Time;durP1;ratioP1;P1;durP2;ratioP2;P2;SDS_P1;SDS_P2;PMS_P1;PMS_P2;Temp;Humidity;BMP_temperature;BMP_pressure;BME280_temperature;BME280_humidity;BME280_pressure;Samples;Min_cycle;Max_cycle;Signal;HPM_P1;HPM_P2
2023/10/28 00:00:17;;;;;;;1.03;0.40;;;;;;;10.10;100.00;148671.56;5006389;28;20225;-58
2023/10/28 00:02:43;;;;;;;1.67;0.37;;;;;;;9.98;100.00;148641.69;4996220;28;20312;-56
2023/10/28 00:05:10;;;;;;;1.07;0.40;;;;;;;9.98;100.00;148642.94;5007375;28;20746;-55
2023/10/28 00:07:38;;;;;;;2.97;0.43;;;;;;;9.93;100.00;148629.22;5004068;28;20230;-58
2023/10/28 00:10:07;;;;;;;0.60;0.40;;;;;;;9.94;100.00;148632.97;5007794;28;20654;-59
2023/10/28 00:12:34;;;;;;;0.90;0.40;;;;;;;9.95;100.00;148635.47;5005718;28;20225;-58
2023/10/28 00:15:00;;;;;;;2.63;0.50;;;;;;;9.99;100.00;148644.16;5008781;28;20282;-58
2023/10/28 00:17:28;;;;;;;2.50;0.50;;;;;;;9.93;100.00;148629.22;5001305;28;20283;-58
2023/10/28 00:19:54;;;;;;;1.23;0.27;;;;;;;9.98;100.00;148641.69;4998358;28;20230;-58
2023/10/28 00:22:21;;;;;;;0.43;0.30;;;;;;;10.04;100.00;148657.88;5007614;28;20468;-57
2023/10/28 00:24:50;;;;;;;1.03;0.30;;;;;;;10.06;100.00;148660.38;5005038;28;20241;-57
2023/10/28 00:27:16;;;;;;;2.40;0.40;;;;;;;10.06;100.00;148660.38;5007780;28;20222;-57
2023/10/28 00:29:43;;;;;;;2.63;0.43;;;;;;;10.05;100.00;148659.09;5002534;28;20233;-58
2023/10/28 00:32:09;;;;;;;1.80;0.30;;;;;;;10.04;100.00;148656.63;5006339;28;20237;-58
2023/10/28 00:34:36;;;;;;;3.00;0.40;;;;;;;10.06;100.00;148660.38;4999074;28;20280;-56
2023/10/28 00:37:04;;;;;;;0.57;0.40;;;;;;;10.08;100.00;148666.59;5004200;28;20285;-58
2023/10/28 00:39:30;;;;;;;0.87;0.40;;;;;;;10.06;100.00;148660.38;4993212;28;20248;-58
2023/10/28 00:42:01;;;;;;;0.80;0.30;;;;;;;10.12;100.00;148676.53;5021590;28;20246;-57
2023/10/28 00:44:32;;;;;;;1.43;0.30;;;;;;;10.14;100.00;148681.53;5005009;28;20227;-58
2023/10/28 00:46:59;;;;;;;2.80;0.50;;;;;;;10.12;100.00;148676.53;5002539;28;20436;-57
2023/10/28 00:49:25;;;;;;;3.60;0.50;;;;;;;10.17;100.00;148689.00;4990294;28;20230;-55
2023/10/28 00:51:52;;;;;;;1.10;0.40;;;;;;;10.17;100.00;148689.00;4985217;28;20707;-58
2023/10/28 00:54:19;;;;;;;2.47;0.53;;;;;;;10.18;100.00;148691.47;5016513;28;20222;-58
2023/10/28 00:56:45;;;;;;;2.30;0.43;;;;;;;10.14;100.00;148681.53;5001153;28;20231;-58
2023/10/28 00:59:13;;;;;;;2.63;0.40;;;;;;;10.11;100.00;148674.03;5004747;28;20252;-59
2023/10/28 01:01:40;;;;;;;1.20;0.47;;;;;;;10.14;100.00;148680.25;4994151;28;20234;-58
2023/10/28 01:04:07;;;;;;;2.40;0.40;;;;;;;10.08;100.00;148665.31;5003124;28;20234;-57
2023/10/28 01:06:34;;;;;;;2.73;0.40;;;;;;;10.08;100.00;148665.31;4992917;28;20680;-58
2023/10/28 01:09:00;;;;;;;8.93;0.80;;;;;;;10.10;100.00;148671.56;5006996;28;20664;-58
2023/10/28 01:11:28;;;;;;;2.63;0.70;;;;;;;10.08;100.00;148665.31;5017317;28;20233;-58
2023/10/28 01:13:55;;;;;;;3.70;0.63;;;;;;;9.96;100.00;148636.69;4993049;28;20230;-59
2023/10/28 01:16:23;;;;;;;3.17;0.93;;;;;;;10.06;100.00;148661.59;4987830;28;20223;-58
2023/10/28 01:18:54;;;;;;;3.43;0.50;;;;;;;10.08;100.00;148665.31;5016892;28;20741;-56
2023/10/28 01:21:22;;;;;;;2.60;0.60;;;;;;;10.15;100.00;148684.00;5005404;28;20241;-59
2023/10/28 01:23:48;;;;;;;4.30;0.63;;;;;;;10.14;100.00;148680.25;5002037;28;21027;-58
2023/10/28 01:26:15;;;;;;;1.43;0.67;;;;;;;10.14;100.00;148680.25;5003619;28;20261;-58
2023/10/28 01:28:41;;;;;;;9.13;0.70;;;;;;;10.12;100.00;148676.53;5003152;28;20222;-58
2023/10/28 01:31:09;;;;;;;4.40;0.67;;;;;;;10.13;100.00;148679.03;5002862;28;20281;-57
2023/10/28 01:33:35;;;;;;;4.80;0.80;;;;;;;10.20;99.26;148695.19;5016941;28;20639;-58
2023/10/28 01:36:02;;;;;;;3.53;0.77;;;;;;;10.18;99.17;148691.47;5019910;28;20231;-58
2023/10/28 01:38:30;;;;;;;3.73;0.90;;;;;;;10.30;96.29;148718.88;4993921;28;20563;-58
2023/10/28 01:40:57;;;;;;;6.13;1.10;;;;;;;10.37;95.54;148736.31;4994386;28;20246;-58
2023/10/28 01:43:24;;;;;;;4.33;0.90;;;;;;;10.39;95.63;148740.03;5019582;28;20282;-58
2023/10/28 01:45:51;;;;;;;8.00;0.90;;;;;;;10.39;96.05;148741.34;4992556;28;20237;-58
2023/10/28 01:48:18;;;;;;;5.83;0.77;;;;;;;10.39;94.99;148741.34;5002732;28;20254;-59
2023/10/28 01:50:44;;;;;;;6.17;0.90;;;;;;;10.41;95.00;148745.06;5000619;28;20222;-58
2023/10/28 01:53:11;;;;;;;9.00;1.20;;;;;;;10.42;94.13;148748.81;5019439;28;20520;-57
2023/10/28 01:55:39;;;;;;;3.77;0.80;;;;;;;10.43;95.13;148751.31;5002777;28;20219;-59
2023/10/28 01:58:06;;;;;;;5.90;1.00;;;;;;;10.40;94.68;148743.84;5000768;28;20315;-58
2023/10/28 02:00:33;;;;;;;3.97;0.73;;;;;;;10.57;91.86;148783.69;5005236;28;20223;-58
2023/10/28 02:03:01;;;;;;;8.53;0.80;;;;;;;10.46;95.02;148757.50;5000512;28;20241;-58
2023/10/28 02:05:27;;;;;;;3.70;0.80;;;;;;;10.38;96.76;148738.81;4998751;28;20685;-57
2023/10/28 02:07:54;;;;;;;3.07;0.83;;;;;;;10.36;96.17;148733.81;5002814;28;20242;-58
2023/10/28 02:10:21;;;;;;;12.77;1.30;;;;;;;10.33;94.93;148727.56;5003564;28;20226;-58
2023/10/28 02:12:51;;;;;;;4.90;1.17;;;;;;;10.38;94.95;148738.81;4997511;28;20316;-58
2023/10/28 02:15:18;;;;;;;7.00;0.93;;;;;;;10.36;95.20;148733.81;5012604;28;20225;-58
2023/10/28 02:17:50;;;;;;;7.90;1.27;;;;;;;10.39;94.77;148741.34;5008912;28;20325;-58
2023/10/28 02:20:17;;;;;;;5.50;0.90;;;;;;;10.36;95.97;148732.56;4994754;28;20223;-58
2023/10/28 02:22:43;;;;;;;7.07;1.20;;;;;;;10.38;95.86;148738.81;4999075;28;20232;-58
2023/10/28 02:25:10;;;;;;;5.67;0.93;;;;;;;10.38;95.58;148738.81;5001837;28;20236;-58
2023/10/28 02:27:38;;;;;;;7.27;1.10;;;;;;;10.33;95.59;148727.56;4998917;28;20281;-57
2023/10/28 02:30:08;;;;;;;6.47;1.23;;;;;;;10.46;93.83;148758.78;5001892;28;20230;-58
2023/10/28 02:32:34;;;;;;;12.43;1.10;;;;;;;10.43;95.18;148750.03;5001904;28;20307;-57
2023/10/28 02:35:02;;;;;;;8.33;1.40;;;;;;;10.45;95.76;148756.28;5000894;28;20229;-57
2023/10/28 02:37:29;;;;;;;10.87;1.47;;;;;;;10.44;96.29;148753.78;5001607;28;20215;-56
2023/10/28 02:39:56;;;;;;;6.87;1.10;;;;;;;10.39;98.36;148741.34;5002492;28;20235;-57
2023/10/28 02:42:23;;;;;;;8.17;1.10;;;;;;;10.38;97.94;148738.81;5019068;28;20232;-58
2023/10/28 02:44:50;;;;;;;9.37;1.43;;;;;;;10.39;98.52;148740.03;4999406;28;20598;-56
2023/10/28 02:47:18;;;;;;;5.70;1.10;;;;;;;10.37;98.87;148736.31;5019250;28;20239;-57
2023/10/28 02:49:45;;;;;;;5.23;1.00;;;;;;;10.30;100.00;148718.88;4998666;28;20222;-56
2023/10/28 02:52:12;;;;;;;6.10;1.43;;;;;;;10.28;99.60;148715.13;5003177;28;20592;-57
2023/10/28 02:54:39;;;;;;;10.30;1.13;;;;;;;10.30;99.17;148718.88;5000588;28;20256;-58
2023/10/28 02:57:06;;;;;;;6.77;1.43;;;;;;;10.26;100.00;148708.91;4999997;28;20293;-58
2023/10/28 02:59:32;;;;;;;8.83;1.00;;;;;;;10.30;99.40;148720.09;5000932;28;20241;-57
2023/10/28 03:01:59;;;;;;;5.27;1.13;;;;;;;10.26;100.00;148710.13;5017264;28;20300;-57
2023/10/28 03:04:27;;;;;;;5.13;1.10;;;;;;;10.29;99.18;148716.38;5002076;28;20230;-57
2023/10/28 03:06:54;;;;;;;5.40;1.33;;;;;;;10.28;99.47;148713.91;4990665;28;20225;-58
2023/10/28 03:09:20;;;;;;;5.63;0.97;;;;;;;10.25;100.00;148707.66;5002636;28;20229;-57
2023/10/28 03:11:47;;;;;;;5.80;0.93;;;;;;;10.28;98.58;148715.13;4992149;28;20238;-58
2023/10/28 03:14:13;;;;;;;4.93;1.10;;;;;;;10.33;97.57;148726.34;5019023;28;20246;-57
2023/10/28 03:16:40;;;;;;;6.00;0.70;;;;;;;10.31;99.57;148721.38;5001074;28;20704;-54
2023/10/28 03:19:07;;;;;;;7.63;0.90;;;;;;;10.38;97.89;148738.81;5002771;28;20288;-57
2023/10/28 03:21:35;;;;;;;7.43;1.07;;;;;;;10.52;94.31;148771.22;4984424;28;20224;-57
2023/10/28 03:24:01;;;;;;;5.10;1.27;;;;;;;10.48;94.92;148762.50;5002137;28;20227;-58
2023/10/28 03:26:29;;;;;;;2.00;0.60;;;;;;;10.52;96.75;148771.22;4999676;28;20234;-58
2023/10/28 03:28:56;;;;;;;4.27;0.80;;;;;;;10.51;95.25;148769.97;4992518;28;20234;-58
2023/10/28 03:31:22;;;;;;;3.93;0.80;;;;;;;10.50;95.32;148767.47;5260088;22;20229;-54
2023/10/28 03:33:49;;;;;;;7.37;1.10;;;;;;;10.54;95.38;148776.22;5050186;28;20233;-54
2023/10/28 03:36:16;;;;;;;4.17;0.70;;;;;;;10.51;96.44;148769.97;5049623;28;20323;-52
2023/10/28 03:38:44;;;;;;;5.00;1.00;;;;;;;10.59;92.95;148788.69;5048969;28;20231;-52
2023/10/28 03:41:11;;;;;;;4.67;1.03;;;;;;;10.62;93.08;148797.38;5048614;28;20241;-52
2023/10/28 03:43:38;;;;;;;5.57;1.00;;;;;;;10.64;93.74;148801.09;5047110;28;20229;-52
2023/10/28 03:46:06;;;;;;;6.57;1.10;;;;;;;10.68;92.00;148809.81;5046943;28;20770;-53
2023/10/28 03:48:33;;;;;;;5.17;0.80;;;;;;;10.68;91.51;148811.03;5047530;28;20699;-51
2023/10/28 03:51:02;;;;;;;4.33;0.90;;;;;;;10.61;93.60;148793.59;5048722;28;20233;-54
2023/10/28 03:53:29;;;;;;;5.47;0.70;;;;;;;10.57;93.78;148783.69;5044399;28;20221;-53
2023/10/28 03:55:57;;;;;;;3.10;0.90;;;;;;;10.58;94.54;148787.41;5045890;28;20466;-54
2023/10/28 03:58:24;;;;;;;3.80;0.97;;;;;;;10.57;93.18;148784.91;5064335;28;20228;-54
2023/10/28 04:00:53;;;;;;;6.50;0.60;;;;;;;10.60;92.89;148791.16;5061146;28;20232;-54
2023/10/28 04:03:20;;;;;;;3.67;0.60;;;;;;;10.63;91.67;148799.84;5046185;28;20218;-54
2023/10/28 04:05:46;;;;;;;4.67;0.70;;;;;;;10.58;90.92;148786.19;5043245;28;20219;-54
2023/10/28 04:08:13;;;;;;;1.33;0.63;;;;;;;10.50;91.49;148766.25;5051020;28;20238;-54
2023/10/28 04:10:40;;;;;;;2.77;0.70;;;;;;;10.49;91.38;148764.97;5046253;28;20227;-54
2023/10/28 04:13:08;;;;;;;3.03;0.50;;;;;;;10.50;90.61;148766.25;5048127;28;20247;-54
2023/10/28 04:15:36;;;;;;;3.13;0.40;;;;;;;10.48;90.45;148763.75;5048590;28;20213;-52
2023/10/28 04:18:02;;;;;;;3.17;0.50;;;;;;;10.52;89.16;148771.22;5051672;28;20232;-54
2023/10/28 04:20:29;;;;;;;3.87;1.00;;;;;;;10.57;89.51;148783.69;5049182;28;20234;-54
2023/10/28 04:22:56;;;;;;;0.93;0.67;;;;;;;10.70;88.30;148814.81;5064967;28;20233;-54
2023/10/28 04:25:22;;;;;;;1.40;0.30;;;;;;;10.73;87.82;148822.28;5044471;28;21100;-53
2023/10/28 04:27:50;;;;;;;5.43;0.50;;;;;;;10.70;88.63;148814.81;5047790;28;20322;-52
2023/10/28 04:30:19;;;;;;;2.87;0.53;;;;;;;10.61;88.28;148793.59;5046857;28;20727;-54
2023/10/28 04:32:50;;;;;;;4.57;0.50;;;;;;;10.63;87.06;148799.84;5041919;28;20310;-53
2023/10/28 04:35:16;;;;;;;2.10;0.40;;;;;;;10.64;87.01;148801.09;5044643;28;20226;-54
2023/10/28 04:37:43;;;;;;;2.93;0.57;;;;;;;10.61;86.76;148793.59;5046292;28;20228;-54
2023/10/28 04:40:11;;;;;;;0.70;0.30;;;;;;;10.51;87.80;148768.75;5047200;28;20231;-52
2023/10/28 04:42:38;;;;;;;3.07;0.40;;;;;;;10.50;87.75;148767.47;5044255;28;20311;-53
2023/10/28 04:45:06;;;;;;;1.07;0.37;;;;;;;10.51;89.01;148769.97;5049133;28;20354;-53
2023/10/28 04:47:35;;;;;;;1.83;0.60;;;;;;;10.49;88.74;148764.97;5045654;28;20688;-53
2023/10/28 04:50:02;;;;;;;3.47;0.60;;;;;;;10.54;89.29;148776.22;5049687;28;20287;-54
2023/10/28 04:52:28;;;;;;;1.87;0.50;;;;;;;10.64;86.93;148801.09;5049680;28;20234;-54
2023/10/28 04:54:55;;;;;;;2.17;0.60;;;;;;;10.67;87.98;148807.34;5041115;28;20244;-54
2023/10/28 04:57:22;;;;;;;3.50;0.47;;;;;;;10.67;88.68;148808.56;5047255;28;20224;-53
2023/10/28 04:59:49;;;;;;;2.03;0.60;;;;;;;10.72;88.62;148821.00;5046297;28;20484;-53
2023/10/28 05:02:16;;;;;;;3.60;0.53;;;;;;;10.79;86.42;148837.22;5054916;28;20648;-54
2023/10/28 05:04:44;;;;;;;2.50;0.57;;;;;;;10.75;88.76;148828.50;5043521;28;20223;-54
2023/10/28 05:07:11;;;;;;;4.50;0.50;;;;;;;10.75;88.58;148827.25;5050922;28;20227;-54
2023/10/28 05:09:38;;;;;;;3.77;0.70;;;;;;;10.77;87.58;148832.25;5046310;28;21819;-54
2023/10/28 05:12:05;;;;;;;3.90;0.50;;;;;;;10.71;87.49;148818.53;5042745;28;20229;-54
2023/10/28 05:14:32;;;;;;;2.90;0.67;;;;;;;10.73;87.46;148822.28;5048189;28;20217;-53
2023/10/28 05:16:58;;;;;;;4.10;1.27;;;;;;;10.77;87.06;148833.47;5047312;28;20237;-54
2023/10/28 05:19:25;;;;;;;4.33;0.80;;;;;;;10.87;86.82;148855.88;5040068;28;20323;-54
2023/10/28 05:21:54;;;;;;;3.60;0.70;;;;;;;10.80;87.45;148839.72;5041040;28;20239;-53
2023/10/28 05:24:21;;;;;;;3.10;0.73;;;;;;;10.88;86.31;148859.66;5051487;28;20227;-53
2023/10/28 05:26:48;;;;;;;4.77;0.60;;;;;;;10.82;87.17;148843.44;5045675;28;20225;-52
2023/10/28 05:29:17;;;;;;;3.27;0.73;;;;;;;10.90;85.65;148863.38;5049169;28;20303;-53
2023/10/28 05:31:43;;;;;;;18.47;9.40;;;;;;;10.84;86.18;148849.69;5043390;28;20263;-53
2023/10/28 05:34:10;;;;;;;16.30;8.47;;;;;;;10.91;85.67;148865.84;5040488;28;20303;-53
2023/10/28 05:36:38;;;;;;;3.00;1.57;;;;;;;10.91;86.61;148865.84;5044818;28;20292;-53
2023/10/28 05:39:08;;;;;;;21.87;17.80;;;;;;;10.96;85.31;148877.09;5048722;28;20706;-54
2023/10/28 05:41:39;;;;;;;29.37;26.57;;;;;;;10.93;85.81;148870.84;5044850;28;20224;-54
2023/10/28 05:44:06;;;;;;;14.93;12.67;;;;;;;10.96;86.27;148878.31;5046850;28;20223;-54
2023/10/28 05:46:32;;;;;;;6.37;0.97;;;;;;;11.04;85.75;148897.03;5037876;28;20232;-52
2023/10/28 05:49:00;;;;;;;3.42;0.90;;;;;;;11.07;84.49;148904.50;5050083;28;20445;-54
2023/10/28 05:51:28;;;;;;;2.40;0.63;;;;;;;11.10;83.88;148910.72;5047120;28;20237;-54
2023/10/28 05:53:54;;;;;;;3.40;0.60;;;;;;;11.15;84.17;148924.41;5046816;28;20319;-53
2023/10/28 05:56:23;;;;;;;4.53;0.80;;;;;;;11.11;84.48;148914.47;5037081;28;20214;-52
2023/10/28 05:58:50;;;;;;;4.47;0.53;;;;;;;11.18;83.55;148930.66;5043292;28;20242;-53
2023/10/28 06:01:16;;;;;;;5.33;1.00;;;;;;;11.20;83.60;148936.84;5050917;28;20294;-53
2023/10/28 06:03:43;;;;;;;5.83;0.93;;;;;;;11.18;83.72;148930.66;5049784;28;20220;-54
2023/10/28 06:06:10;;;;;;;4.47;0.60;;;;;;;11.15;84.01;148924.41;5041160;28;20570;-53
2023/10/28 06:08:38;;;;;;;4.13;0.60;;;;;;;11.16;84.41;148926.88;5041596;28;20246;-54
2023/10/28 06:11:05;;;;;;;7.23;0.60;;;;;;;11.14;84.72;148921.91;5037071;28;20232;-54
2023/10/28 06:13:33;;;;;;;5.30;0.73;;;;;;;11.08;84.10;148908.22;5049863;28;20642;-54
2023/10/28 06:16:00;;;;;;;2.80;0.70;;;;;;;11.05;85.00;148899.53;5047638;28;20726;-54
2023/10/28 06:18:27;;;;;;;3.70;0.70;;;;;;;11.03;85.52;148895.75;5051007;28;20236;-53
2023/10/28 06:20:53;;;;;;;3.33;0.50;;;;;;;11.15;84.05;148924.41;5052521;28;20709;-54
2023/10/28 06:23:20;;;;;;;3.53;1.13;;;;;;;11.08;86.19;148907.00;5051138;28;20789;-52
2023/10/28 06:25:46;;;;;;;3.10;0.63;;;;;;;11.08;84.88;148907.00;5050096;28;20212;-53
2023/10/28 06:28:13;;;;;;;4.17;0.80;;;;;;;11.13;84.45;148919.41;5051632;28;20713;-54
2023/10/28 06:30:47;;;;;;;3.27;0.83;;;;;;;11.14;84.72;148921.91;5044595;28;20226;-54
2023/10/28 06:33:13;;;;;;;5.27;0.83;;;;;;;11.18;84.81;148930.66;5051196;28;20569;-54
2023/10/28 06:35:40;;;;;;;2.70;0.70;;;;;;;11.14;84.42;148921.91;5042427;28;20225;-53
2023/10/28 06:38:07;;;;;;;3.27;0.73;;;;;;;11.13;85.28;148919.41;5049807;28;20708;-54
2023/10/28 06:40:33;;;;;;;4.10;0.90;;;;;;;11.02;85.61;148893.28;5044072;28;20232;-52
2023/10/28 06:43:00;;;;;;;4.10;0.80;;;;;;;11.03;85.56;148895.75;5049054;28;20244;-54
2023/10/28 06:45:28;;;;;;;3.70;0.70;;;;;;;10.97;85.94;148880.81;5040888;28;20272;-53
2023/10/28 06:47:56;;;;;;;1.80;0.60;;;;;;;10.88;86.58;148858.38;5044100;28;20233;-54
2023/10/28 06:50:22;;;;;;;3.97;0.60;;;;;;;10.85;86.03;148852.19;5049155;28;20235;-52
2023/10/28 06:52:50;;;;;;;6.83;0.60;;;;;;;10.78;87.41;148834.75;5051810;28;20240;-52
2023/10/28 06:55:17;;;;;;;8.90;4.00;;;;;;;10.75;88.16;148827.25;5050061;28;20651;-54
2023/10/28 06:57:50;;;;;;;3.23;0.90;;;;;;;10.73;88.66;148823.50;5044692;28;20241;-53
2023/10/28 07:00:17;;;;;;;4.47;1.00;;;;;;;10.86;86.30;148854.66;5042492;28;20301;-54
2023/10/28 07:02:47;;;;;;;1.70;0.70;;;;;;;10.88;87.00;148859.66;5039783;28;20227;-53
2023/10/28 07:05:15;;;;;;;4.43;0.70;;;;;;;10.94;87.49;148873.34;5054200;28;20239;-54
2023/10/28 07:07:42;;;;;;;4.03;0.77;;;;;;;10.97;86.42;148880.81;5045500;28;20305;-53
2023/10/28 07:10:09;;;;;;;6.63;0.70;;;;;;;10.99;86.91;148885.78;5049408;28;20611;-53
2023/10/28 07:12:35;;;;;;;13.40;7.83;;;;;;;11.05;86.35;148900.75;5044945;28;20223;-53
2023/10/28 07:15:02;;;;;;;3.60;0.53;;;;;;;11.18;85.00;148931.88;5049941;28;20317;-53
2023/10/28 07:17:29;;;;;;;9.27;2.43;;;;;;;11.24;86.17;148945.59;5052638;28;20250;-54
2023/10/28 07:19:55;;;;;;;5.73;2.57;;;;;;;11.31;84.26;148963.06;5050773;28;20689;-54
2023/10/28 07:22:25;;;;;;;4.13;1.57;;;;;;;11.42;83.20;148989.19;5051807;28;20223;-52
2023/10/28 07:24:53;;;;;;;4.67;1.10;;;;;;;11.44;83.38;148994.19;5047244;28;20235;-53
2023/10/28 07:27:20;;;;;;;7.27;2.83;;;;;;;11.42;83.35;148989.19;5047636;28;20638;-54
2023/10/28 07:29:48;;;;;;;4.17;1.57;;;;;;;11.43;83.78;148990.47;5045034;28;20216;-55
2023/10/28 07:32:14;;;;;;;6.53;2.47;;;;;;;11.53;82.36;149015.38;5052491;28;20769;-55
2023/10/28 07:34:42;;;;;;;8.93;2.20;;;;;;;11.56;82.65;149022.88;5046329;28;20228;-55
2023/10/28 07:37:08;;;;;;;2.90;1.27;;;;;;;11.66;80.79;149047.75;5049335;28;20601;-53
2023/10/28 07:39:38;;;;;;;8.10;3.17;;;;;;;11.70;82.05;149055.22;5046609;28;20227;-53
2023/10/28 07:42:05;;;;;;;16.33;7.83;;;;;;;11.79;82.03;149077.66;5048327;28;20236;-52
2023/10/28 07:44:32;;;;;;;13.30;4.50;;;;;;;11.87;79.89;149097.59;5050515;28;20240;-54
2023/10/28 07:46:59;;;;;;;5.77;1.13;;;;;;;11.94;80.70;149113.84;5047571;28;20237;-53
2023/10/28 07:49:26;;;;;;;10.80;4.40;;;;;;;11.86;80.94;149093.91;5054219;28;20231;-52
2023/10/28 07:51:53;;;;;;;17.97;7.27;;;;;;;11.85;79.71;149091.41;5054519;28;20239;-54
2023/10/28 07:54:19;;;;;;;7.30;1.40;;;;;;;11.91;81.56;149106.34;5054743;28;20720;-53
2023/10/28 07:56:47;;;;;;;13.93;5.77;;;;;;;11.90;79.97;149103.88;5049593;28;20224;-52
2023/10/28 07:59:14;;;;;;;12.73;5.20;;;;;;;11.94;79.84;149115.06;5050067;28;20240;-52
2023/10/28 08:01:41;;;;;;;9.77;5.30;;;;;;;11.99;80.33;149126.31;5049648;28;20223;-52
2023/10/28 08:04:07;;;;;;;4.10;1.77;;;;;;;12.04;79.37;149137.56;5050550;28;20320;-53
2023/10/28 08:06:34;;;;;;;5.63;1.33;;;;;;;12.03;78.60;149136.34;5046576;28;20218;-53
2023/10/28 08:09:04;;;;;;;8.40;2.43;;;;;;;12.12;79.63;149157.50;5053348;28;20240;-53
2023/10/28 08:11:31;;;;;;;4.30;1.07;;;;;;;12.21;78.93;149179.94;5049365;28;20233;-53
2023/10/28 08:13:59;;;;;;;5.70;1.67;;;;;;;12.45;78.65;149237.31;5051257;28;20625;-53
2023/10/28 08:16:26;;;;;;;12.73;3.27;;;;;;;12.38;78.23;149219.84;5054776;28;20244;-54
2023/10/28 08:18:54;;;;;;;5.50;1.50;;;;;;;12.30;78.01;149199.91;5037596;28;20229;-55
2023/10/28 08:21:21;;;;;;;9.73;1.40;;;;;;;12.37;78.23;149217.34;5046275;28;20329;-54
2023/10/28 08:23:49;;;;;;;5.50;1.50;;;;;;;12.27;78.43;149192.41;5045815;28;20657;-54
2023/10/28 08:26:17;;;;;;;4.83;2.63;;;;;;;12.27;78.18;149192.41;5053203;28;20239;-53
2023/10/28 08:28:44;;;;;;;5.50;1.10;;;;;;;12.34;76.29;149209.88;5042375;28;20626;-55
2023/10/28 08:31:12;;;;;;;5.70;1.17;;;;;;;12.25;77.83;149188.66;5054342;28;20686;-55
2023/10/28 08:33:41;;;;;;;6.03;0.97;;;;;;;12.26;77.61;149191.16;5051992;28;20218;-55
2023/10/28 08:36:09;;;;;;;5.30;0.73;;;;;;;12.47;77.85;149241.03;5050746;28;20240;-52
2023/10/28 08:38:36;;;;;;;5.27;1.00;;;;;;;12.55;76.52;149260.97;5047579;28;20224;-52
2023/10/28 08:41:05;;;;;;;5.90;1.93;;;;;;;12.66;77.63;149287.19;5046980;28;20322;-52
2023/10/28 08:43:34;;;;;;;2.47;0.83;;;;;;;12.60;76.21;149273.44;5044109;28;20315;-53
2023/10/28 08:46:04;;;;;;;4.67;0.90;;;;;;;12.86;74.77;149335.81;5053502;28;20233;-54
2023/10/28 08:48:32;;;;;;;7.00;1.67;;;;;;;13.16;75.29;149408.16;5050054;28;20222;-52
2023/10/28 08:51:00;;;;;;;4.93;0.93;;;;;;;13.21;73.99;149419.38;5054471;28;20227;-52
2023/10/28 08:53:28;;;;;;;3.97;0.93;;;;;;;13.02;73.98;149373.25;5052556;28;20623;-52
2023/10/28 08:56:00;;;;;;;4.43;0.87;;;;;;;12.95;73.83;149358.28;5050196;28;20584;-52
2023/10/28 08:58:28;;;;;;;6.23;1.63;;;;;;;12.89;76.75;149343.31;5051648;28;20225;-54
2023/10/28 09:00:59;;;;;;;3.13;1.07;;;;;;;12.94;75.41;149354.50;5049088;28;20233;-52
2023/10/28 09:03:27;;;;;;;4.43;1.00;;;;;;;12.89;74.08;149342.03;5050864;28;20304;-52
2023/10/28 09:05:55;;;;;;;7.20;1.43;;;;;;;12.94;75.00;149355.78;5049911;28;20222;-54
2023/10/28 09:08:23;;;;;;;6.57;1.00;;;;;;;12.97;74.99;149363.25;5047051;28;20264;-54
2023/10/28 09:10:50;;;;;;;6.43;1.00;;;;;;;13.16;73.21;149406.91;5046643;28;20243;-55
2023/10/28 09:13:17;;;;;;;4.70;1.00;;;;;;;13.05;74.45;149381.94;5038622;28;20317;-52
2023/10/28 09:15:44;;;;;;;3.30;0.97;;;;;;;13.26;73.93;149433.09;5050803;28;20268;-54
2023/10/28 09:18:11;;;;;;;5.43;0.87;;;;;;;13.21;73.67;149420.66;5052917;28;20227;-52
2023/10/28 09:20:38;;;;;;;5.03;0.93;;;;;;;13.34;72.67;149450.53;5048037;28;20229;-53
2023/10/28 09:23:06;;;;;;;3.00;1.00;;;;;;;13.68;71.36;149532.97;5051077;28;20899;-54
2023/10/28 09:25:34;;;;;;;4.00;0.90;;;;;;;13.13;72.83;149401.91;5043157;28;20219;-54
2023/10/28 09:28:02;;;;;;;3.23;0.93;;;;;;;13.34;71.76;149450.53;5049059;28;20227;-54
2023/10/28 09:30:29;;;;;;;5.57;1.00;;;;;;;13.21;72.99;149419.38;5045723;28;20236;-54
2023/10/28 09:32:57;;;;;;;3.13;0.70;;;;;;;13.37;71.67;149458.03;5053396;28;20609;-54
2023/10/28 09:35:26;;;;;;;7.00;1.10;;;;;;;13.62;70.07;149519.25;5052810;28;20228;-54
2023/10/28 09:37:53;;;;;;;3.67;0.90;;;;;;;13.84;70.52;149572.91;5053318;28;20232;-53
2023/10/28 09:40:27;;;;;;;4.37;0.93;;;;;;;13.77;69.91;149554.19;5052068;28;20232;-54
2023/10/28 09:42:54;;;;;;;4.70;1.00;;;;;;;13.65;71.75;149526.75;5050391;28;20304;-53
2023/10/28 09:45:22;;;;;;;5.50;1.20;;;;;;;13.69;70.37;149535.47;5061842;23;20223;-58
2023/10/28 09:47:56;;;;;;;2.47;0.73;;;;;;;13.71;69.41;149540.44;5036310;28;20242;-59
2023/10/28 09:50:26;;;;;;;6.20;1.43;;;;;;;13.96;68.04;149600.38;5033754;28;20306;-58
2023/10/28 09:52:54;;;;;;;5.93;1.10;;;;;;;13.98;68.46;149606.56;5032504;28;20235;-58
2023/10/28 09:55:26;;;;;;;4.47;0.87;;;;;;;13.92;68.00;149590.38;5036147;28;20234;-59
2023/10/28 09:58:01;;;;;;;5.87;1.17;;;;;;;13.78;68.08;149556.69;5032076;28;20239;-59
2023/10/28 10:00:30;;;;;;;7.47;1.30;;;;;;;13.87;68.34;149580.38;5032934;28;20281;-58
2023/10/28 10:03:07;;;;;;;6.60;1.27;;;;;;;13.93;68.56;149592.88;5032446;28;20237;-59
2023/10/28 10:05:39;;;;;;;3.00;0.90;;;;;;;13.78;69.22;149556.69;5025432;28;20219;-59
2023/10/28 10:08:17;;;;;;;4.93;1.27;;;;;;;14.01;68.61;149614.06;5022992;28;20220;-58
2023/10/28 10:10:46;;;;;;;14.50;6.70;;;;;;;14.24;68.70;149667.78;5027242;28;20702;-58
2023/10/28 10:13:15;;;;;;;4.73;1.20;;;;;;;14.12;66.95;149639.03;5034303;28;20320;-58
2023/10/28 10:15:49;;;;;;;9.90;1.47;;;;;;;14.05;67.25;149621.56;5031681;28;20557;-59
2023/10/28 10:18:28;;;;;;;8.93;1.20;;;;;;;14.05;68.39;149622.81;5033674;28;20236;-59
2023/10/28 10:21:04;;;;;;;8.13;1.53;;;;;;;14.07;67.96;149626.56;5029410;28;20226;-59
2023/10/28 10:23:39;;;;;;;8.63;1.40;;;;;;;13.91;67.49;149589.09;5027005;28;20228;-59
2023/10/28 10:26:06;;;;;;;7.43;1.10;;;;;;;13.88;67.35;149581.59;5022446;28;20686;-58
2023/10/28 10:28:34;;;;;;;8.63;2.47;;;;;;;14.06;68.63;149624.06;5020341;28;20215;-58
2023/10/28 10:31:09;;;;;;;4.97;1.53;;;;;;;13.94;67.42;149596.59;5024373;28;20226;-58
2023/10/28 10:33:38;;;;;;;6.63;1.70;;;;;;;14.09;67.65;149631.53;5024513;28;20216;-58
2023/10/28 10:36:09;;;;;;;6.83;1.30;;;;;;;14.16;65.85;149649.03;5028805;28;20242;-59
2023/10/28 10:38:36;;;;;;;5.87;1.50;;;;;;;14.04;67.15;149620.34;5024880;28;20251;-59
2023/10/28 10:41:04;;;;;;;7.87;1.40;;;;;;;14.11;68.09;149637.81;5026620;28;20241;-59
2023/10/28 10:43:32;;;;;;;10.93;1.50;;;;;;;14.08;66.50;149629.03;5030155;28;20705;-58
2023/10/28 10:46:00;;;;;;;5.50;1.87;;;;;;;14.42;65.39;149711.44;5035429;28;20242;-59
2023/10/28 10:48:27;;;;;;;10.63;1.73;;;;;;;14.28;64.34;149679.00;5029352;28;20229;-58
2023/10/28 10:50:56;;;;;;;10.97;1.60;;;;;;;14.05;65.38;149621.56;5029215;28;20243;-59
2023/10/28 10:53:23;;;;;;;4.23;1.10;;;;;;;14.20;65.33;149659.00;5024568;28;20232;-59
2023/10/28 10:55:49;;;;;;;10.00;2.17;;;;;;;13.87;66.53;149579.13;5027294;28;20235;-58
2023/10/28 10:58:16;;;;;;;8.63;2.10;;;;;;;14.00;67.42;149611.56;5036484;28;20222;-59
2023/10/28 11:00:51;;;;;;;6.97;1.40;;;;;;;13.95;66.49;149599.09;5025337;28;20227;-59
2023/10/28 11:03:19;;;;;;;9.93;1.90;;;;;;;13.77;68.38;149554.19;5035668;28;20222;-59
2023/10/28 11:05:46;;;;;;;6.90;1.40;;;;;;;13.73;66.53;149545.44;5030449;28;20758;-59
2023/10/28 11:08:14;;;;;;;5.80;1.53;;;;;;;13.58;67.55;149509.28;5026760;28;20219;-59
2023/10/28 11:10:42;;;;;;;11.77;2.10;;;;;;;13.55;68.41;149501.78;5030954;28;20242;-59
2023/10/28 11:13:09;;;;;;;5.77;1.20;;;;;;;13.62;69.05;149517.97;5025496;28;20699;-55
2023/10/28 11:15:36;;;;;;;6.90;1.50;;;;;;;13.68;71.23;149534.22;5023985;28;20223;-59
2023/10/28 11:18:03;;;;;;;10.90;1.93;;;;;;;13.76;69.68;149552.94;5038160;28;20227;-57
2023/10/28 11:20:31;;;;;;;7.10;2.40;;;;;;;13.80;67.81;149562.91;5036922;28;20594;-57
2023/10/28 11:22:57;;;;;;;6.63;1.90;;;;;;;13.78;68.76;149556.69;5039261;28;20243;-58
2023/10/28 11:25:31;;;;;;;5.73;1.57;;;;;;;13.77;68.42;149555.44;5038402;28;20235;-58